createdAt,value
2022-12-01T00:01:24.008Z,19.00
2022-12-01T00:03:52.177Z,19.57
2022-12-01T00:06:22.057Z,21.37
2022-12-01T00:09:10.902Z,19.87
2022-12-01T00:11:41.135Z,18.73
2022-12-01T00:14:09.225Z,19.50
2022-12-01T00:16:40.592Z,21.33
2022-12-01T00:19:08.906Z,21.07
2022-12-01T00:21:37.119Z,20.23
2022-12-01T00:24:05.655Z,20.27
2022-12-01T00:26:33.773Z,21.57
2022-12-01T00:29:01.933Z,22.23
2022-12-01T00:31:30.245Z,21.20
2022-12-01T00:33:59.914Z,25.00
2022-12-01T00:36:28.104Z,21.87
2022-12-01T00:38:57.539Z,20.40
2022-12-01T00:41:27.287Z,19.17
2022-12-01T00:43:55.412Z,22.93
2022-12-01T00:46:23.881Z,17.63
2022-12-01T00:48:52.077Z,21.40
2022-12-01T00:51:21.675Z,19.33
2022-12-01T00:53:49.873Z,19.40
2022-12-01T00:56:18.064Z,20.33
2022-12-01T00:58:46.159Z,18.93
2022-12-01T01:01:14.645Z,19.67
2022-12-01T01:03:42.835Z,17.17
2022-12-01T01:06:13.275Z,18.37
2022-12-01T01:08:43.139Z,17.53
2022-12-01T01:11:11.217Z,17.40
2022-12-01T01:13:39.614Z,15.80
2022-12-01T01:16:11.334Z,17.53
2022-12-01T01:18:39.520Z,17.97
2022-12-01T01:21:10.068Z,18.63
2022-12-01T01:23:38.311Z,16.00
2022-12-01T01:26:09.420Z,21.10
2022-12-01T01:28:37.494Z,18.13
2022-12-01T01:31:07.022Z,18.33
2022-12-01T01:33:35.343Z,21.20
2022-12-01T01:36:04.715Z,20.17
2022-12-01T01:38:33.846Z,19.40
2022-12-01T01:41:02.438Z,22.23
2022-12-01T01:43:43.812Z,22.33
2022-12-01T01:46:13.779Z,20.70
2022-12-01T01:48:44.734Z,21.17
2022-12-01T01:51:14.386Z,22.17
2022-12-01T01:53:43.389Z,24.50
2022-12-01T01:56:11.711Z,19.97
2022-12-01T01:58:42.488Z,23.53
2022-12-01T02:01:10.552Z,23.73
2022-12-01T02:03:40.967Z,22.73
2022-12-01T02:06:10.497Z,20.13
2022-12-01T02:08:38.912Z,20.73
2022-12-01T02:11:32.366Z,26.67
2022-12-01T02:14:10.982Z,22.27
2022-12-01T02:16:48.533Z,21.73
2022-12-01T02:19:42.099Z,23.23
2022-12-01T02:22:20.555Z,20.30
2022-12-01T02:25:28.134Z,22.40
2022-12-01T02:28:28.556Z,21.43
2022-12-01T02:31:02.382Z,21.70
2022-12-01T02:33:37.925Z,22.23
2022-12-01T02:36:14.086Z,24.13
2022-12-01T02:38:48.943Z,21.80
2022-12-01T02:41:20.645Z,21.00
2022-12-01T02:43:58.406Z,22.90
2022-12-01T02:46:34.274Z,23.83
2022-12-01T02:49:07.716Z,22.87
2022-12-01T02:51:38.701Z,27.23
2022-12-01T02:54:07.245Z,31.97
2022-12-01T02:56:35.338Z,27.83
2022-12-01T02:59:03.412Z,27.13
2022-12-01T03:01:52.633Z,28.33
2022-12-01T03:04:38.907Z,29.97
2022-12-01T03:07:17.149Z,29.10
2022-12-01T03:09:56.310Z,30.97
2022-12-01T03:12:30.130Z,29.87
2022-12-01T03:15:04.425Z,34.67
2022-12-01T03:17:40.902Z,32.63
2022-12-01T03:20:16.060Z,32.77
2022-12-01T03:22:48.700Z,33.27
2022-12-01T03:25:18.348Z,35.10
2022-12-01T03:28:19.376Z,30.07
2022-12-01T03:30:37.577Z,28.83
2022-12-01T03:33:10.728Z,29.17
2022-12-01T03:35:43.950Z,27.17
2022-12-01T03:38:17.033Z,31.10
2022-12-01T03:40:47.613Z,27.67
2022-12-01T03:43:20.434Z,27.97
2022-12-01T03:45:56.050Z,29.40
2022-12-01T03:48:26.718Z,26.97
2022-12-01T03:51:04.208Z,30.50
2022-12-01T03:53:39.119Z,30.97
2022-12-01T03:56:09.060Z,27.60
2022-12-01T03:58:41.282Z,27.43
2022-12-01T04:01:09.905Z,30.80
2022-12-01T04:03:39.340Z,28.73
2022-12-01T04:06:07.997Z,25.00
2022-12-01T04:08:37.560Z,31.30
2022-12-01T04:11:32.269Z,28.17
2022-12-01T04:13:59.793Z,30.40
2022-12-01T04:16:28.125Z,33.37
2022-12-01T04:18:57.528Z,30.87
2022-12-01T04:21:25.528Z,31.17
2022-12-01T04:24:02.848Z,30.17
2022-12-01T04:26:32.289Z,29.83
2022-12-01T04:29:00.469Z,28.17
2022-12-01T04:31:28.960Z,25.53
2022-12-01T04:33:59.265Z,32.27
2022-12-01T04:36:30.552Z,30.53
2022-12-01T04:38:58.584Z,31.20
2022-12-01T04:41:26.608Z,32.00
2022-12-01T04:43:55.382Z,35.30
2022-12-01T04:46:23.762Z,30.00
2022-12-01T04:48:51.971Z,34.30
2022-12-01T04:51:22.416Z,30.03
2022-12-01T04:53:50.515Z,28.60
2022-12-01T04:56:18.812Z,31.63
2022-12-01T04:58:48.052Z,35.10
2022-12-01T05:01:17.960Z,28.67
2022-12-01T05:03:49.376Z,31.03
2022-12-01T05:06:18.943Z,31.50
2022-12-01T05:08:49.050Z,32.83
2022-12-01T05:11:17.967Z,26.57
2022-12-01T05:13:48.063Z,34.10
2022-12-01T05:16:18.080Z,32.67
2022-12-01T05:18:49.551Z,33.93
2022-12-01T05:21:17.720Z,31.37
2022-12-01T05:23:45.805Z,30.17
2022-12-01T05:26:15.499Z,35.37
2022-12-01T05:28:43.573Z,33.87
2022-12-01T05:31:11.636Z,31.17
2022-12-01T05:33:39.809Z,30.93
2022-12-01T05:36:08.558Z,33.93
2022-12-01T05:38:36.587Z,38.57
2022-12-01T05:41:04.692Z,34.80
2022-12-01T05:43:34.332Z,34.67
2022-12-01T05:46:02.851Z,36.47
2022-12-01T05:48:30.919Z,34.43
2022-12-01T05:50:59.066Z,37.03
2022-12-01T05:53:27.145Z,37.53
2022-12-01T05:55:55.521Z,32.83
2022-12-01T05:58:24.068Z,38.83
2022-12-01T06:00:53.428Z,33.10
2022-12-01T06:03:21.421Z,32.93
2022-12-01T06:05:49.456Z,40.90
2022-12-01T06:08:17.571Z,34.67
2022-12-01T06:10:45.965Z,36.90
2022-12-01T06:13:14.112Z,35.40
2022-12-01T06:15:42.285Z,34.07
2022-12-01T06:18:11.721Z,37.40
2022-12-01T06:20:40.899Z,36.33
2022-12-01T06:23:08.963Z,38.43
2022-12-01T06:25:37.054Z,41.10
2022-12-01T06:28:05.849Z,35.20
2022-12-01T06:30:33.982Z,37.93
2022-12-01T06:33:02.549Z,36.37
2022-12-01T06:35:32.038Z,33.77
2022-12-01T06:38:00.186Z,37.07
2022-12-01T06:40:28.308Z,34.67
2022-12-01T06:42:56.557Z,44.20
2022-12-01T06:45:24.657Z,35.67
2022-12-01T06:47:54.974Z,38.20
2022-12-01T06:50:23.401Z,40.90
2022-12-01T06:52:53.865Z,38.57
2022-12-01T06:55:22.034Z,40.03
2022-12-01T06:57:50.352Z,39.80
2022-12-01T07:00:19.159Z,36.70
2022-12-01T07:02:47.600Z,34.20
2022-12-01T07:05:15.991Z,44.10
2022-12-01T07:07:44.475Z,38.63
2022-12-01T07:10:15.052Z,33.60
2022-12-01T07:12:43.290Z,38.63
2022-12-01T07:15:12.303Z,37.10
2022-12-01T07:17:40.486Z,38.37
2022-12-01T07:20:11.403Z,41.27
2022-12-01T07:22:40.073Z,34.53
2022-12-01T07:25:09.001Z,33.70
2022-12-01T07:27:38.561Z,38.60
2022-12-01T07:30:08.133Z,36.20
2022-12-01T07:32:37.002Z,38.07
2022-12-01T07:35:05.387Z,33.10
2022-12-01T07:37:33.602Z,32.87
2022-12-01T07:40:01.753Z,35.40
2022-12-01T07:42:29.884Z,29.57
2022-12-01T07:44:59.439Z,37.00
2022-12-01T07:47:27.565Z,31.03
2022-12-01T07:49:55.708Z,37.20
2022-12-01T07:52:23.775Z,30.33
2022-12-01T07:54:52.840Z,31.50
2022-12-01T07:57:20.907Z,31.27
2022-12-01T07:59:49.250Z,34.10
2022-12-01T08:02:18.960Z,29.70
2022-12-01T08:04:47.135Z,35.23
2022-12-01T08:07:15.165Z,30.87
2022-12-01T08:09:45.133Z,34.03
2022-12-01T08:12:13.181Z,31.33
2022-12-01T08:14:41.220Z,36.20
2022-12-01T08:17:09.388Z,34.27
2022-12-01T08:19:43.209Z,34.03
2022-12-01T08:22:11.438Z,31.80
2022-12-01T08:24:39.787Z,36.93
2022-12-01T08:27:08.017Z,34.80
2022-12-01T08:29:37.079Z,36.37
2022-12-01T08:32:05.401Z,36.60
2022-12-01T08:34:38.679Z,36.37
2022-12-01T08:37:06.727Z,33.60
2022-12-01T08:39:34.736Z,30.10
2022-12-01T08:42:02.710Z,32.50
2022-12-01T08:44:30.767Z,35.73
2022-12-01T08:46:59.199Z,31.90
2022-12-01T08:49:27.247Z,34.00
2022-12-01T08:51:57.269Z,33.70
2022-12-01T08:54:25.301Z,31.20
2022-12-01T08:56:53.320Z,32.20
2022-12-01T08:59:21.361Z,34.70
2022-12-01T09:01:57.390Z,36.80
2022-12-01T09:04:27.061Z,33.73
2022-12-01T09:06:58.043Z,35.90
2022-12-01T09:09:28.397Z,35.23
2022-12-01T09:11:56.835Z,35.97
2022-12-01T09:14:25.271Z,34.07
2022-12-01T09:16:53.283Z,39.00
2022-12-01T09:19:25.004Z,32.57
2022-12-01T09:21:54.102Z,31.27
2022-12-01T09:24:24.033Z,35.40
2022-12-01T09:26:55.849Z,37.80
2022-12-01T09:29:23.843Z,33.17
2022-12-01T09:31:52.260Z,33.37
2022-12-01T09:34:21.502Z,36.00
2022-12-01T09:36:49.771Z,51.73
2022-12-01T09:39:19.571Z,33.37
2022-12-01T09:41:53.056Z,26.83
2022-12-01T09:44:38.957Z,27.20
2022-12-01T09:47:14.472Z,24.77
2022-12-01T09:49:55.354Z,24.83
2022-12-01T09:52:26.475Z,28.33
2022-12-01T09:54:56.356Z,29.40
2022-12-01T09:57:31.913Z,30.50
2022-12-01T10:00:01.162Z,34.83
2022-12-01T10:02:34.584Z,30.50
2022-12-01T10:05:06.499Z,29.37
2022-12-01T10:07:38.913Z,35.90
2022-12-01T10:10:12.140Z,33.47
2022-12-01T10:12:47.551Z,30.50
2022-12-01T10:15:22.519Z,30.87
2022-12-01T10:18:00.416Z,36.58
2022-12-01T10:20:32.564Z,35.63
2022-12-01T10:23:16.294Z,29.20
2022-12-01T10:25:53.226Z,33.77
2022-12-01T10:28:46.303Z,26.97
2022-12-01T10:31:20.891Z,29.40
2022-12-01T10:33:59.938Z,26.17
2022-12-01T10:36:29.431Z,31.47
2022-12-01T10:38:57.836Z,40.90
2022-12-01T10:41:29.569Z,38.77
2022-12-01T10:44:01.547Z,35.07
2022-12-01T10:46:36.434Z,28.03
2022-12-01T10:49:10.592Z,32.27
2022-12-01T10:51:51.405Z,33.40
2022-12-01T10:54:19.918Z,35.63
2022-12-01T10:56:50.400Z,33.07
2022-12-01T10:59:27.919Z,36.58
2022-12-01T11:01:57.943Z,36.33
2022-12-01T11:04:36.376Z,33.30
2022-12-01T11:07:05.462Z,30.00
2022-12-01T11:09:33.785Z,34.07
2022-12-01T11:12:03.917Z,34.83
2022-12-01T11:14:44.062Z,36.40
2022-12-01T11:17:34.511Z,36.25
2022-12-01T11:20:29.978Z,31.80
2022-12-01T11:23:24.855Z,33.80
2022-12-01T11:26:09.086Z,33.37
2022-12-01T11:28:38.793Z,39.15
2022-12-01T11:31:10.950Z,33.63
2022-12-01T11:33:46.488Z,32.53
2022-12-01T11:36:23.289Z,32.67
2022-12-01T11:38:56.410Z,35.50
2022-12-01T11:41:30.659Z,37.67
2022-12-01T11:44:01.836Z,37.07
2022-12-01T11:46:36.950Z,32.37
2022-12-01T11:49:05.153Z,32.53
2022-12-01T11:51:37.526Z,31.60
2022-12-01T11:54:14.688Z,33.70
2022-12-01T11:56:44.087Z,30.17
2022-12-01T11:59:16.162Z,32.57
2022-12-01T12:02:06.231Z,30.17
2022-12-01T12:04:48.992Z,34.33
2022-12-01T12:07:27.693Z,34.63
2022-12-01T12:10:10.725Z,35.27
2022-12-01T12:12:57.676Z,35.67
2022-12-01T12:15:39.137Z,31.70
2022-12-01T12:18:26.379Z,33.93
2022-12-01T12:21:05.690Z,30.80
2022-12-01T12:23:58.525Z,35.27
2022-12-01T12:26:29.437Z,35.07
2022-12-01T12:29:21.018Z,35.30
2022-12-01T12:32:03.527Z,40.05
2022-12-01T12:34:49.171Z,39.57
2022-12-01T12:37:26.133Z,32.93
2022-12-01T12:40:27.716Z,36.93
2022-12-01T12:43:07.806Z,34.57
2022-12-01T12:45:48.297Z,40.67
2022-12-01T12:48:26.708Z,34.80
2022-12-01T12:51:08.362Z,35.60
2022-12-01T12:53:42.095Z,34.97
2022-12-01T12:56:15.145Z,40.23
2022-12-01T12:58:51.183Z,38.70
2022-12-01T13:01:24.504Z,36.63
2022-12-01T13:03:58.551Z,41.03
2022-12-01T13:06:33.597Z,40.80
2022-12-01T13:09:07.937Z,44.20
2022-12-01T13:11:42.858Z,45.77
2022-12-01T13:14:18.762Z,46.17
2022-12-01T13:16:49.180Z,37.60
2022-12-01T13:19:21.889Z,38.77
2022-12-01T13:21:53.756Z,40.83
2022-12-01T13:24:26.108Z,35.07
2022-12-01T13:26:58.731Z,38.47
2022-12-01T13:29:28.438Z,35.47
2022-12-01T13:31:56.518Z,38.57
2022-12-01T13:34:30.878Z,43.17
2022-12-01T13:37:00.412Z,40.93
2022-12-01T13:39:35.667Z,43.80
2022-12-01T13:42:07.324Z,41.70
2022-12-01T13:44:41.360Z,40.17
2022-12-01T13:47:39.383Z,40.77
2022-12-01T13:50:40.157Z,35.17
2022-12-01T13:53:13.527Z,41.20
2022-12-01T13:56:02.028Z,37.83
2022-12-01T13:58:45.096Z,37.83
2022-12-01T14:01:45.700Z,40.30
2022-12-01T14:04:29.191Z,43.13
2022-12-01T14:07:30.805Z,42.93
2022-12-01T14:10:26.800Z,40.20
2022-12-01T14:12:57.799Z,44.27
2022-12-01T14:15:33.058Z,50.13
2022-12-01T14:18:04.996Z,42.17
2022-12-01T14:20:37.383Z,37.27
2022-12-01T14:23:18.192Z,38.30
2022-12-01T14:26:05.113Z,40.20
2022-12-01T14:29:11.942Z,39.97
2022-12-01T14:32:24.622Z,36.63
2022-12-01T14:35:00.634Z,40.13
2022-12-01T14:37:37.855Z,31.87
2022-12-01T14:40:12.698Z,38.33
2022-12-01T14:43:03.119Z,35.73
2022-12-01T14:45:36.362Z,38.70
2022-12-01T14:48:07.619Z,38.60
2022-12-01T14:50:46.393Z,31.60
2022-12-01T14:53:24.354Z,30.35
2022-12-01T14:55:57.448Z,30.87
2022-12-01T14:58:28.991Z,27.70
2022-12-01T15:01:05.108Z,26.47
2022-12-01T15:03:38.133Z,32.80
2022-12-01T15:06:07.150Z,30.63
2022-12-01T15:08:58.147Z,30.47
2022-12-01T15:11:26.637Z,25.60
2022-12-01T15:13:57.500Z,29.70
2022-12-01T15:16:27.059Z,29.60
2022-12-01T15:18:55.156Z,30.57
2022-12-01T15:21:25.847Z,24.67
2022-12-01T15:23:55.635Z,28.03
2022-12-01T15:26:25.168Z,27.33
2022-12-01T15:29:17.259Z,22.73
2022-12-01T15:31:47.600Z,24.27
2022-12-01T15:34:18.182Z,28.90
2022-12-01T15:36:47.153Z,27.83
2022-12-01T15:39:17.182Z,24.77
2022-12-01T15:41:46.595Z,25.73
2022-12-01T15:44:26.737Z,26.33
2022-12-01T15:46:54.739Z,25.80
2022-12-01T15:49:29.490Z,24.80
2022-12-01T15:52:07.079Z,23.50
2022-12-01T15:54:35.830Z,23.83
2022-12-01T15:57:04.523Z,29.40
2022-12-01T15:59:38.034Z,27.37
2022-12-01T16:02:25.193Z,24.37
2022-12-01T16:05:02.645Z,25.63
2022-12-01T16:08:10.990Z,21.77
2022-12-01T16:10:30.649Z,23.40
2022-12-01T16:13:36.456Z,25.50
2022-12-01T16:16:48.399Z,22.40
2022-12-01T16:19:28.477Z,23.47
2022-12-01T16:22:02.382Z,23.50
2022-12-01T16:24:33.455Z,27.53
2022-12-01T16:27:04.404Z,19.20
2022-12-01T16:29:35.884Z,19.00
2022-12-01T16:32:21.653Z,20.07
2022-12-01T16:34:52.665Z,25.57
2022-12-01T16:37:22.190Z,19.97
2022-12-01T16:39:50.787Z,23.27
2022-12-01T16:42:20.621Z,24.03
2022-12-01T16:44:50.065Z,30.83
2022-12-01T16:47:20.435Z,26.10
2022-12-01T16:49:48.694Z,25.83
2022-12-01T16:55:14.604Z,23.67
2022-12-01T16:57:42.586Z,21.37
2022-12-01T17:00:12.068Z,24.87
2022-12-01T17:02:40.067Z,24.40
2022-12-01T17:05:08.776Z,27.83
2022-12-01T17:07:38.381Z,26.50
2022-12-01T17:10:07.428Z,28.87
2022-12-01T17:12:35.413Z,29.13
2022-12-01T17:15:03.524Z,23.70
2022-12-01T17:17:31.516Z,22.80
2022-12-01T17:19:59.521Z,24.07
2022-12-01T17:22:27.525Z,24.23
2022-12-01T17:24:56.949Z,19.10
2022-12-01T17:27:27.645Z,20.20
2022-12-01T17:29:55.786Z,21.07
2022-12-01T17:32:23.788Z,23.83
2022-12-01T17:34:52.212Z,22.63
2022-12-01T17:37:21.380Z,22.67
2022-12-01T17:39:50.320Z,20.07
2022-12-01T17:42:19.676Z,23.97
2022-12-01T17:44:47.795Z,22.37
2022-12-01T17:47:16.044Z,22.00
2022-12-01T17:49:44.066Z,20.63
2022-12-01T17:52:12.337Z,25.63
2022-12-01T17:54:40.360Z,25.90
2022-12-01T17:57:08.468Z,26.87
2022-12-01T17:59:38.240Z,27.70
2022-12-01T18:02:06.320Z,31.73
2022-12-01T18:04:34.955Z,29.83
2022-12-01T18:07:03.028Z,34.57
2022-12-01T18:09:31.305Z,31.30
2022-12-01T18:11:59.359Z,32.93
2022-12-01T18:14:27.876Z,35.80
2022-12-01T18:16:57.211Z,32.50
2022-12-01T18:19:25.382Z,39.33
2022-12-01T18:21:53.389Z,42.83
2022-12-01T18:24:21.386Z,43.03
2022-12-01T18:26:49.525Z,43.40
2022-12-01T18:29:25.789Z,40.13
2022-12-01T18:31:56.443Z,41.13
2022-12-01T18:34:24.429Z,47.87
2022-12-01T18:36:52.440Z,43.43
2022-12-01T18:39:20.490Z,47.30
2022-12-01T18:41:48.663Z,45.60
2022-12-01T18:44:16.679Z,40.83
2022-12-01T18:46:44.732Z,41.83
2022-12-01T18:49:14.522Z,45.17
2022-12-01T18:51:42.953Z,44.20
2022-12-01T18:54:16.302Z,43.37
2022-12-01T18:56:44.396Z,40.37
2022-12-01T18:59:13.851Z,43.30
2022-12-01T19:01:44.375Z,42.90
2022-12-01T19:04:16.722Z,41.00
2022-12-01T19:06:46.600Z,45.80
2022-12-01T19:09:16.034Z,49.77
2022-12-01T19:11:44.383Z,42.57
2022-12-01T19:14:16.548Z,38.43
2022-12-01T19:16:44.796Z,45.03
2022-12-01T19:19:14.252Z,43.70
2022-12-01T19:21:42.842Z,46.67
2022-12-01T19:24:10.973Z,43.37
2022-12-01T19:26:39.084Z,42.17
2022-12-01T19:29:07.239Z,45.13
2022-12-01T19:31:35.306Z,46.87
2022-12-01T19:34:04.183Z,45.87
2022-12-01T19:36:33.688Z,42.30
2022-12-01T19:39:04.433Z,42.23
2022-12-01T19:41:35.752Z,44.80
2022-12-01T19:44:03.741Z,47.53
2022-12-01T19:46:31.807Z,43.20
2022-12-01T19:49:01.454Z,47.03
2022-12-01T19:51:31.124Z,46.10
2022-12-01T19:54:00.516Z,40.20
2022-12-01T19:56:29.687Z,45.77
2022-12-01T19:58:59.301Z,43.83
2022-12-01T20:01:28.212Z,46.77
2022-12-01T20:03:56.543Z,49.97
2022-12-01T20:06:26.649Z,43.57
2022-12-01T20:08:57.717Z,47.37
2022-12-01T20:11:29.640Z,47.83
2022-12-01T20:13:57.707Z,43.80
2022-12-01T20:16:28.448Z,44.93
2022-12-01T20:18:56.519Z,49.93
2022-12-01T20:21:26.679Z,49.03
2022-12-01T20:23:58.163Z,45.40
2022-12-01T20:26:30.788Z,49.60
2022-12-01T20:29:02.846Z,46.73
2022-12-01T20:31:32.068Z,43.43
2022-12-01T20:34:02.975Z,46.00
2022-12-01T20:36:31.801Z,48.23
2022-12-01T20:39:00.007Z,55.00
2022-12-01T20:41:29.712Z,52.80
2022-12-01T20:44:01.268Z,48.03
2022-12-01T20:46:33.618Z,52.17
2022-12-01T20:49:01.918Z,47.70
2022-12-01T20:51:33.163Z,51.73
2022-12-01T20:54:26.788Z,48.17
2022-12-01T20:56:50.931Z,46.43
2022-12-01T20:59:18.972Z,50.07
2022-12-01T21:01:47.172Z,48.93
2022-12-01T21:04:15.315Z,48.70
2022-12-01T21:06:43.510Z,46.30
2022-12-01T21:09:13.051Z,49.27
2022-12-01T21:12:04.669Z,43.23
2022-12-01T21:14:38.293Z,45.67
2022-12-01T21:17:19.130Z,47.13
2022-12-01T21:19:54.529Z,49.33
2022-12-01T21:22:22.623Z,48.07
2022-12-01T21:24:53.188Z,50.47
2022-12-01T21:27:21.691Z,45.80
2022-12-01T21:29:51.591Z,42.63
2022-12-01T21:32:23.865Z,45.67
2022-12-01T21:34:52.498Z,44.80
2022-12-01T21:37:23.193Z,42.97
2022-12-01T21:39:52.714Z,43.57
2022-12-01T21:42:23.606Z,43.83
2022-12-01T21:44:53.317Z,42.03
2022-12-01T21:47:23.920Z,41.90
2022-12-01T21:49:54.140Z,43.77
2022-12-01T21:52:25.115Z,49.90
2022-12-01T21:54:53.653Z,48.87
2022-12-01T21:57:43.223Z,45.63
2022-12-01T22:00:27.623Z,46.70
2022-12-01T22:03:11.007Z,43.87
2022-12-01T22:05:41.469Z,41.13
2022-12-01T22:08:21.844Z,44.10
2022-12-01T22:10:57.632Z,39.60
2022-12-01T22:13:28.481Z,41.70
2022-12-01T22:15:58.275Z,40.80
2022-12-01T22:18:37.165Z,41.67
2022-12-01T22:21:31.679Z,41.33
2022-12-01T22:24:19.223Z,40.47
2022-12-01T22:26:50.749Z,45.33
2022-12-01T22:29:27.621Z,47.73
2022-12-01T22:32:28.241Z,51.13
2022-12-01T22:34:59.824Z,50.40
2022-12-01T22:37:35.283Z,47.73
2022-12-01T22:40:18.878Z,53.00
2022-12-01T22:42:46.892Z,47.10
2022-12-01T22:45:22.745Z,44.50
2022-12-01T22:47:52.358Z,46.27
2022-12-01T22:50:27.504Z,52.27
2022-12-01T22:52:56.721Z,46.87
2022-12-01T22:55:24.755Z,51.40
2022-12-01T22:57:53.353Z,52.37
2022-12-01T23:00:23.994Z,51.70
2022-12-01T23:02:56.693Z,52.90
2022-12-01T23:05:26.934Z,51.93
2022-12-01T23:07:55.454Z,48.27
2022-12-01T23:10:26.006Z,47.03
2022-12-01T23:12:56.204Z,47.13
2022-12-01T23:15:30.464Z,42.77
2022-12-01T23:18:03.399Z,48.73
2022-12-01T23:20:33.533Z,44.97
2022-12-01T23:23:03.947Z,45.17
2022-12-01T23:25:32.356Z,47.17
2022-12-01T23:28:03.868Z,44.40
2022-12-01T23:30:31.912Z,43.03
2022-12-01T23:33:23.411Z,44.83
2022-12-01T23:35:55.764Z,39.93
2022-12-01T23:38:25.783Z,47.87
2022-12-01T23:40:57.201Z,48.73
2022-12-01T23:43:27.278Z,52.30
2022-12-01T23:46:03.392Z,48.33
2022-12-01T23:48:35.676Z,42.07
2022-12-01T23:51:03.824Z,39.73
2022-12-01T23:53:33.836Z,39.17
2022-12-01T23:56:05.824Z,37.33
2022-12-01T23:58:34.796Z,42.43
